sensor_id;sensor_type;location;lat;lon;timestamp;P1;durP1;ratioP1;P2;durP2;ratioP2
50671;SDS011;46021;55.882;37.654;2023-06-10T00:02:20;9.27;;;2.95;;
50671;SDS011;46021;55.882;37.654;2023-06-10T00:04:48;6.73;;;3.40;;
50671;SDS011;46021;55.882;37.654;2023-06-10T00:07:17;6.00;;;2.70;;
50671;SDS011;46021;55.882;37.654;2023-06-10T00:09:44;5.57;;;3.08;;
50671;SDS011;46021;55.882;37.654;2023-06-10T00:12:11;4.17;;;2.80;;
50671;SDS011;46021;55.882;37.654;2023-06-10T00:14:38;8.38;;;3.20;;
50671;SDS011;46021;55.882;37.654;2023-06-10T00:17:07;8.88;;;3.00;;
50671;SDS011;46021;55.882;37.654;2023-06-10T00:19:35;5.30;;;3.00;;
50671;SDS011;46021;55.882;37.654;2023-06-10T00:22:07;6.13;;;2.90;;
50671;SDS011;46021;55.882;37.654;2023-06-10T00:24:36;4.68;;;2.67;;
50671;SDS011;46021;55.882;37.654;2023-06-10T00:27:03;5.72;;;3.20;;
50671;SDS011;46021;55.882;37.654;2023-06-10T00:29:32;6.78;;;2.88;;
50671;SDS011;46021;55.882;37.654;2023-06-10T00:31:59;7.95;;;3.08;;
50671;SDS011;46021;55.882;37.654;2023-06-10T00:34:27;5.37;;;3.30;;
50671;SDS011;46021;55.882;37.654;2023-06-10T00:36:54;8.80;;;4.50;;
50671;SDS011;46021;55.882;37.654;2023-06-10T00:41:50;7.50;;;3.20;;
50671;SDS011;46021;55.882;37.654;2023-06-10T00:44:17;7.32;;;3.08;;
50671;SDS011;46021;55.882;37.654;2023-06-10T00:46:44;5.27;;;2.83;;
50671;SDS011;46021;55.882;37.654;2023-06-10T00:49:12;6.28;;;2.80;;
50671;SDS011;46021;55.882;37.654;2023-06-10T00:51:39;8.13;;;2.75;;
50671;SDS011;46021;55.882;37.654;2023-06-10T00:54:06;5.53;;;2.93;;
50671;SDS011;46021;55.882;37.654;2023-06-10T00:56:34;6.35;;;2.72;;
50671;SDS011;46021;55.882;37.654;2023-06-10T00:59:04;5.63;;;2.35;;
50671;SDS011;46021;55.882;37.654;2023-06-10T01:01:31;6.20;;;2.90;;
50671;SDS011;46021;55.882;37.654;2023-06-10T01:04:01;4.45;;;2.60;;
50671;SDS011;46021;55.882;37.654;2023-06-10T01:06:31;5.00;;;2.70;;
50671;SDS011;46021;55.882;37.654;2023-06-10T01:09:13;5.47;;;3.30;;
50671;SDS011;46021;55.882;37.654;2023-06-10T01:11:47;4.40;;;2.85;;
50671;SDS011;46021;55.882;37.654;2023-06-10T01:14:24;4.22;;;2.75;;
50671;SDS011;46021;55.882;37.654;2023-06-10T01:16:53;4.50;;;2.83;;
50671;SDS011;46021;55.882;37.654;2023-06-10T01:19:20;5.03;;;3.00;;
50671;SDS011;46021;55.882;37.654;2023-06-10T01:21:51;5.82;;;3.05;;
50671;SDS011;46021;55.882;37.654;2023-06-10T01:24:20;7.70;;;3.13;;
50671;SDS011;46021;55.882;37.654;2023-06-10T01:26:48;8.43;;;3.08;;
50671;SDS011;46021;55.882;37.654;2023-06-10T01:29:19;6.60;;;3.03;;
50671;SDS011;46021;55.882;37.654;2023-06-10T01:31:49;5.32;;;3.20;;
50671;SDS011;46021;55.882;37.654;2023-06-10T01:34:23;5.30;;;2.85;;
50671;SDS011;46021;55.882;37.654;2023-06-10T01:36:52;5.60;;;2.90;;
50671;SDS011;46021;55.882;37.654;2023-06-10T01:39:24;4.63;;;2.70;;
50671;SDS011;46021;55.882;37.654;2023-06-10T01:41:52;6.78;;;2.85;;
50671;SDS011;46021;55.882;37.654;2023-06-10T01:44:20;5.90;;;2.80;;
50671;SDS011;46021;55.882;37.654;2023-06-10T01:46:48;5.72;;;3.58;;
50671;SDS011;46021;55.882;37.654;2023-06-10T01:49:15;8.85;;;3.05;;
50671;SDS011;46021;55.882;37.654;2023-06-10T01:51:43;3.92;;;2.60;;
50671;SDS011;46021;55.882;37.654;2023-06-10T01:54:12;3.70;;;2.40;;
50671;SDS011;46021;55.882;37.654;2023-06-10T01:56:39;6.70;;;3.40;;
50671;SDS011;46021;55.882;37.654;2023-06-10T01:59:06;4.30;;;2.50;;
50671;SDS011;46021;55.882;37.654;2023-06-10T02:01:33;6.90;;;2.83;;
50671;SDS011;46021;55.882;37.654;2023-06-10T02:06:31;5.60;;;2.83;;
50671;SDS011;46021;55.882;37.654;2023-06-10T02:08:58;5.05;;;2.50;;
50671;SDS011;46021;55.882;37.654;2023-06-10T02:11:30;4.60;;;2.67;;
50671;SDS011;46021;55.882;37.654;2023-06-10T02:13:57;7.47;;;2.47;;
50671;SDS011;46021;55.882;37.654;2023-06-10T02:16:25;6.30;;;2.47;;
50671;SDS011;46021;55.882;37.654;2023-06-10T02:18:52;7.65;;;2.72;;
50671;SDS011;46021;55.882;37.654;2023-06-10T02:21:20;4.50;;;2.45;;
50671;SDS011;46021;55.882;37.654;2023-06-10T02:23:47;5.50;;;2.35;;
50671;SDS011;46021;55.882;37.654;2023-06-10T02:26:14;4.68;;;2.25;;
50671;SDS011;46021;55.882;37.654;2023-06-10T02:28:43;3.63;;;2.00;;
50671;SDS011;46021;55.882;37.654;2023-06-10T02:31:12;4.13;;;2.30;;
50671;SDS011;46021;55.882;37.654;2023-06-10T02:36:08;5.00;;;2.05;;
50671;SDS011;46021;55.882;37.654;2023-06-10T02:38:38;3.72;;;1.90;;
50671;SDS011;46021;55.882;37.654;2023-06-10T02:41:06;7.32;;;2.70;;
50671;SDS011;46021;55.882;37.654;2023-06-10T02:43:34;3.90;;;2.33;;
50671;SDS011;46021;55.882;37.654;2023-06-10T02:46:03;4.32;;;2.30;;
50671;SDS011;46021;55.882;37.654;2023-06-10T02:48:31;4.93;;;2.33;;
50671;SDS011;46021;55.882;37.654;2023-06-10T02:50:58;4.22;;;2.20;;
50671;SDS011;46021;55.882;37.654;2023-06-10T02:53:36;3.72;;;2.38;;
50671;SDS011;46021;55.882;37.654;2023-06-10T02:56:08;5.63;;;2.45;;
50671;SDS011;46021;55.882;37.654;2023-06-10T02:58:35;3.88;;;2.15;;
50671;SDS011;46021;55.882;37.654;2023-06-10T03:01:04;4.53;;;2.00;;
50671;SDS011;46021;55.882;37.654;2023-06-10T03:03:41;3.80;;;2.03;;
50671;SDS011;46021;55.882;37.654;2023-06-10T03:06:11;5.95;;;1.90;;
50671;SDS011;46021;55.882;37.654;2023-06-10T03:08:39;4.65;;;1.80;;
50671;SDS011;46021;55.882;37.654;2023-06-10T03:11:10;5.57;;;2.13;;
50671;SDS011;46021;55.882;37.654;2023-06-10T03:16:09;6.45;;;1.70;;
50671;SDS011;46021;55.882;37.654;2023-06-10T03:18:38;4.00;;;1.77;;
50671;SDS011;46021;55.882;37.654;2023-06-10T03:21:07;6.70;;;1.73;;
50671;SDS011;46021;55.882;37.654;2023-06-10T03:23:35;3.70;;;1.60;;
50671;SDS011;46021;55.882;37.654;2023-06-10T03:26:03;3.03;;;1.65;;
50671;SDS011;46021;55.882;37.654;2023-06-10T03:28:32;7.25;;;1.63;;
50671;SDS011;46021;55.882;37.654;2023-06-10T03:31:00;4.57;;;1.42;;
50671;SDS011;46021;55.882;37.654;2023-06-10T03:33:31;4.72;;;1.88;;
50671;SDS011;46021;55.882;37.654;2023-06-10T03:35:59;2.22;;;1.30;;
50671;SDS011;46021;55.882;37.654;2023-06-10T03:38:27;2.08;;;1.40;;
50671;SDS011;46021;55.882;37.654;2023-06-10T03:40:54;2.90;;;1.75;;
50671;SDS011;46021;55.882;37.654;2023-06-10T03:43:22;2.35;;;1.25;;
50671;SDS011;46021;55.882;37.654;2023-06-10T03:45:50;4.05;;;1.42;;
50671;SDS011;46021;55.882;37.654;2023-06-10T03:48:18;5.82;;;1.73;;
50671;SDS011;46021;55.882;37.654;2023-06-10T03:50:51;7.22;;;1.80;;
50671;SDS011;46021;55.882;37.654;2023-06-10T03:53:19;4.40;;;1.80;;
50671;SDS011;46021;55.882;37.654;2023-06-10T03:55:47;3.10;;;1.30;;
50671;SDS011;46021;55.882;37.654;2023-06-10T03:58:16;2.67;;;1.42;;
50671;SDS011;46021;55.882;37.654;2023-06-10T04:00:43;2.53;;;1.45;;
50671;SDS011;46021;55.882;37.654;2023-06-10T04:03:11;2.90;;;1.65;;
50671;SDS011;46021;55.882;37.654;2023-06-10T04:05:42;3.22;;;1.80;;
50671;SDS011;46021;55.882;37.654;2023-06-10T04:08:11;2.63;;;1.40;;
50671;SDS011;46021;55.882;37.654;2023-06-10T04:10:38;11.77;;;1.30;;
50671;SDS011;46021;55.882;37.654;2023-06-10T04:13:06;3.90;;;1.30;;
50671;SDS011;46021;55.882;37.654;2023-06-10T04:15:39;2.20;;;1.23;;
50671;SDS011;46021;55.882;37.654;2023-06-10T04:18:10;7.63;;;1.60;;
50671;SDS011;46021;55.882;37.654;2023-06-10T04:20:37;4.47;;;1.50;;
50671;SDS011;46021;55.882;37.654;2023-06-10T04:23:04;2.85;;;1.33;;
50671;SDS011;46021;55.882;37.654;2023-06-10T04:25:33;3.83;;;1.65;;
50671;SDS011;46021;55.882;37.654;2023-06-10T04:28:01;6.15;;;1.55;;
50671;SDS011;46021;55.882;37.654;2023-06-10T04:32:56;1.98;;;1.30;;
50671;SDS011;46021;55.882;37.654;2023-06-10T04:35:24;2.58;;;1.17;;
50671;SDS011;46021;55.882;37.654;2023-06-10T04:37:52;3.95;;;1.30;;
50671;SDS011;46021;55.882;37.654;2023-06-10T04:40:20;3.13;;;1.30;;
50671;SDS011;46021;55.882;37.654;2023-06-10T04:42:49;2.25;;;1.30;;
50671;SDS011;46021;55.882;37.654;2023-06-10T04:45:16;4.90;;;1.23;;
50671;SDS011;46021;55.882;37.654;2023-06-10T04:47:44;3.03;;;1.40;;
50671;SDS011;46021;55.882;37.654;2023-06-10T04:50:11;5.13;;;1.42;;
50671;SDS011;46021;55.882;37.654;2023-06-10T04:52:38;5.22;;;1.40;;
50671;SDS011;46021;55.882;37.654;2023-06-10T04:55:07;3.03;;;1.20;;
50671;SDS011;46021;55.882;37.654;2023-06-10T04:57:35;2.22;;;1.20;;
50671;SDS011;46021;55.882;37.654;2023-06-10T05:00:04;2.28;;;1.15;;
50671;SDS011;46021;55.882;37.654;2023-06-10T05:02:33;4.28;;;1.40;;
50671;SDS011;46021;55.882;37.654;2023-06-10T05:07:29;1.77;;;1.20;;
50671;SDS011;46021;55.882;37.654;2023-06-10T05:09:56;2.92;;;1.25;;
50671;SDS011;46021;55.882;37.654;2023-06-10T05:12:23;5.32;;;1.50;;
50671;SDS011;46021;55.882;37.654;2023-06-10T05:14:50;3.15;;;1.30;;
50671;SDS011;46021;55.882;37.654;2023-06-10T05:17:18;10.60;;;1.75;;
50671;SDS011;46021;55.882;37.654;2023-06-10T05:19:46;3.03;;;1.55;;
50671;SDS011;46021;55.882;37.654;2023-06-10T05:22:13;4.32;;;1.08;;
50671;SDS011;46021;55.882;37.654;2023-06-10T05:24:41;5.30;;;1.20;;
50671;SDS011;46021;55.882;37.654;2023-06-10T05:29:35;5.47;;;1.27;;
50671;SDS011;46021;55.882;37.654;2023-06-10T05:32:03;5.70;;;1.38;;
50671;SDS011;46021;55.882;37.654;2023-06-10T05:34:32;3.75;;;1.35;;
50671;SDS011;46021;55.882;37.654;2023-06-10T05:36:59;4.90;;;1.23;;
50671;SDS011;46021;55.882;37.654;2023-06-10T05:39:26;2.88;;;1.70;;
50671;SDS011;46021;55.882;37.654;2023-06-10T05:41:53;1.88;;;1.00;;
50671;SDS011;46021;55.882;37.654;2023-06-10T05:44:21;3.63;;;1.08;;
50671;SDS011;46021;55.882;37.654;2023-06-10T05:46:48;4.18;;;1.15;;
50671;SDS011;46021;55.882;37.654;2023-06-10T05:49:15;3.88;;;1.30;;
50671;SDS011;46021;55.882;37.654;2023-06-10T05:51:43;3.05;;;1.30;;
50671;SDS011;46021;55.882;37.654;2023-06-10T05:54:10;4.25;;;1.30;;
50671;SDS011;46021;55.882;37.654;2023-06-10T05:56:38;2.20;;;1.13;;
50671;SDS011;46021;55.882;37.654;2023-06-10T05:59:05;4.47;;;1.10;;
50671;SDS011;46021;55.882;37.654;2023-06-10T06:01:32;3.72;;;0.93;;
50671;SDS011;46021;55.882;37.654;2023-06-10T06:03:59;2.55;;;1.30;;
50671;SDS011;46021;55.882;37.654;2023-06-10T06:06:26;3.90;;;1.30;;
50671;SDS011;46021;55.882;37.654;2023-06-10T06:11:21;7.60;;;1.40;;
50671;SDS011;46021;55.882;37.654;2023-06-10T06:13:49;9.55;;;1.42;;
50671;SDS011;46021;55.882;37.654;2023-06-10T06:16:17;3.85;;;1.33;;
50671;SDS011;46021;55.882;37.654;2023-06-10T06:18:44;2.95;;;1.00;;
50671;SDS011;46021;55.882;37.654;2023-06-10T06:21:12;3.45;;;1.10;;
50671;SDS011;46021;55.882;37.654;2023-06-10T06:23:39;2.40;;;1.25;;
50671;SDS011;46021;55.882;37.654;2023-06-10T06:26:07;4.25;;;1.15;;
50671;SDS011;46021;55.882;37.654;2023-06-10T06:28:35;2.38;;;1.20;;
50671;SDS011;46021;55.882;37.654;2023-06-10T06:31:02;2.88;;;1.00;;
50671;SDS011;46021;55.882;37.654;2023-06-10T06:33:29;3.55;;;1.30;;
50671;SDS011;46021;55.882;37.654;2023-06-10T06:35:56;4.47;;;0.98;;
50671;SDS011;46021;55.882;37.654;2023-06-10T06:38:25;7.10;;;1.20;;
50671;SDS011;46021;55.882;37.654;2023-06-10T06:40:54;2.53;;;1.02;;
50671;SDS011;46021;55.882;37.654;2023-06-10T06:43:26;6.28;;;1.40;;
50671;SDS011;46021;55.882;37.654;2023-06-10T06:46:03;7.25;;;1.10;;
50671;SDS011;46021;55.882;37.654;2023-06-10T06:48:30;1.52;;;0.90;;
50671;SDS011;46021;55.882;37.654;2023-06-10T06:50:57;5.28;;;1.38;;
50671;SDS011;46021;55.882;37.654;2023-06-10T06:53:24;4.18;;;1.75;;
50671;SDS011;46021;55.882;37.654;2023-06-10T06:55:52;2.88;;;1.10;;
50671;SDS011;46021;55.882;37.654;2023-06-10T06:58:19;2.10;;;0.88;;
50671;SDS011;46021;55.882;37.654;2023-06-10T07:00:47;2.05;;;0.93;;
50671;SDS011;46021;55.882;37.654;2023-06-10T07:03:14;4.53;;;1.40;;
50671;SDS011;46021;55.882;37.654;2023-06-10T07:05:42;1.73;;;0.93;;
50671;SDS011;46021;55.882;37.654;2023-06-10T07:08:09;6.22;;;1.00;;
50671;SDS011;46021;55.882;37.654;2023-06-10T07:10:37;1.92;;;0.90;;
50671;SDS011;46021;55.882;37.654;2023-06-10T07:13:04;2.45;;;0.90;;
50671;SDS011;46021;55.882;37.654;2023-06-10T07:15:31;3.20;;;1.02;;
50671;SDS011;46021;55.882;37.654;2023-06-10T07:18:00;3.17;;;1.10;;
50671;SDS011;46021;55.882;37.654;2023-06-10T07:20:27;2.95;;;1.00;;
50671;SDS011;46021;55.882;37.654;2023-06-10T07:22:54;2.45;;;0.93;;
50671;SDS011;46021;55.882;37.654;2023-06-10T07:25:22;1.40;;;0.80;;
50671;SDS011;46021;55.882;37.654;2023-06-10T07:27:49;5.13;;;1.20;;
50671;SDS011;46021;55.882;37.654;2023-06-10T07:30:16;2.63;;;0.95;;
50671;SDS011;46021;55.882;37.654;2023-06-10T07:32:43;6.57;;;1.10;;
50671;SDS011;46021;55.882;37.654;2023-06-10T07:35:12;2.20;;;1.02;;
50671;SDS011;46021;55.882;37.654;2023-06-10T07:37:40;3.42;;;1.10;;
50671;SDS011;46021;55.882;37.654;2023-06-10T07:40:08;1.58;;;0.95;;
50671;SDS011;46021;55.882;37.654;2023-06-10T07:42:35;3.95;;;1.08;;
50671;SDS011;46021;55.882;37.654;2023-06-10T07:45:03;2.10;;;0.85;;
50671;SDS011;46021;55.882;37.654;2023-06-10T07:47:33;2.95;;;1.25;;
50671;SDS011;46021;55.882;37.654;2023-06-10T07:50:00;1.30;;;0.93;;
50671;SDS011;46021;55.882;37.654;2023-06-10T07:52:29;6.53;;;1.10;;
50671;SDS011;46021;55.882;37.654;2023-06-10T07:54:56;1.55;;;0.90;;
50671;SDS011;46021;55.882;37.654;2023-06-10T07:57:23;10.00;;;1.40;;
50671;SDS011;46021;55.882;37.654;2023-06-10T07:59:50;1.33;;;0.83;;
50671;SDS011;46021;55.882;37.654;2023-06-10T08:02:17;7.18;;;1.52;;
50671;SDS011;46021;55.882;37.654;2023-06-10T08:04:44;2.38;;;0.90;;
50671;SDS011;46021;55.882;37.654;2023-06-10T08:07:12;2.03;;;1.00;;
50671;SDS011;46021;55.882;37.654;2023-06-10T08:09:40;1.13;;;0.80;;
50671;SDS011;46021;55.882;37.654;2023-06-10T08:12:07;1.95;;;0.60;;
50671;SDS011;46021;55.882;37.654;2023-06-10T08:14:38;1.42;;;0.80;;
50671;SDS011;46021;55.882;37.654;2023-06-10T08:17:05;1.77;;;0.70;;
50671;SDS011;46021;55.882;37.654;2023-06-10T08:19:33;3.28;;;0.98;;
50671;SDS011;46021;55.882;37.654;2023-06-10T08:22:00;3.70;;;1.50;;
50671;SDS011;46021;55.882;37.654;2023-06-10T08:24:27;4.25;;;1.38;;
50671;SDS011;46021;55.882;37.654;2023-06-10T08:26:55;7.18;;;1.30;;
50671;SDS011;46021;55.882;37.654;2023-06-10T08:29:23;6.15;;;1.67;;
50671;SDS011;46021;55.882;37.654;2023-06-10T08:31:50;7.97;;;1.38;;
50671;SDS011;46021;55.882;37.654;2023-06-10T08:34:17;1.65;;;0.70;;
50671;SDS011;46021;55.882;37.654;2023-06-10T08:36:44;6.40;;;1.50;;
50671;SDS011;46021;55.882;37.654;2023-06-10T08:39:12;2.70;;;1.15;;
50671;SDS011;46021;55.882;37.654;2023-06-10T08:41:40;4.07;;;1.13;;
50671;SDS011;46021;55.882;37.654;2023-06-10T08:44:12;4.43;;;1.20;;
50671;SDS011;46021;55.882;37.654;2023-06-10T08:46:44;3.25;;;0.85;;
50671;SDS011;46021;55.882;37.654;2023-06-10T08:49:14;1.13;;;0.70;;
50671;SDS011;46021;55.882;37.654;2023-06-10T08:51:47;2.10;;;0.98;;
50671;SDS011;46021;55.882;37.654;2023-06-10T08:54:17;8.23;;;1.33;;
50671;SDS011;46021;55.882;37.654;2023-06-10T08:56:51;8.05;;;1.33;;
50671;SDS011;46021;55.882;37.654;2023-06-10T08:59:23;4.22;;;1.23;;
50671;SDS011;46021;55.882;37.654;2023-06-10T09:01:51;5.25;;;1.00;;
50671;SDS011;46021;55.882;37.654;2023-06-10T09:04:20;1.40;;;0.80;;
50671;SDS011;46021;55.882;37.654;2023-06-10T09:09:15;2.28;;;0.90;;
50671;SDS011;46021;55.882;37.654;2023-06-10T09:11:43;2.67;;;1.00;;
50671;SDS011;46021;55.882;37.654;2023-06-10T09:14:10;8.45;;;0.82;;
50671;SDS011;46021;55.882;37.654;2023-06-10T09:16:40;5.68;;;1.10;;
50671;SDS011;46021;55.882;37.654;2023-06-10T09:19:08;1.85;;;0.90;;
50671;SDS011;46021;55.882;37.654;2023-06-10T09:21:39;1.95;;;0.98;;
50671;SDS011;46021;55.882;37.654;2023-06-10T09:24:07;5.05;;;1.00;;
50671;SDS011;46021;55.882;37.654;2023-06-10T09:29:04;12.38;;;1.30;;
50671;SDS011;46021;55.882;37.654;2023-06-10T09:31:34;2.17;;;1.10;;
50671;SDS011;46021;55.882;37.654;2023-06-10T09:34:07;3.25;;;1.05;;
50671;SDS011;46021;55.882;37.654;2023-06-10T09:36:35;5.53;;;1.30;;
50671;SDS011;46021;55.882;37.654;2023-06-10T09:39:04;4.30;;;1.52;;
50671;SDS011;46021;55.882;37.654;2023-06-10T09:41:32;4.93;;;1.00;;
50671;SDS011;46021;55.882;37.654;2023-06-10T09:44:00;1.77;;;0.73;;
50671;SDS011;46021;55.882;37.654;2023-06-10T09:46:30;2.95;;;0.98;;
50671;SDS011;46021;55.882;37.654;2023-06-10T09:48:58;2.45;;;0.80;;
50671;SDS011;46021;55.882;37.654;2023-06-10T09:51:27;11.88;;;1.13;;
50671;SDS011;46021;55.882;37.654;2023-06-10T09:53:54;2.35;;;1.00;;
50671;SDS011;46021;55.882;37.654;2023-06-10T09:56:21;3.22;;;1.05;;
50671;SDS011;46021;55.882;37.654;2023-06-10T09:58:59;1.50;;;0.80;;
50671;SDS011;46021;55.882;37.654;2023-06-10T10:03:53;4.40;;;0.95;;
50671;SDS011;46021;55.882;37.654;2023-06-10T10:06:20;2.45;;;0.77;;
50671;SDS011;46021;55.882;37.654;2023-06-10T10:08:50;6.25;;;0.80;;
50671;SDS011;46021;55.882;37.654;2023-06-10T10:11:18;2.97;;;0.73;;
50671;SDS011;46021;55.882;37.654;2023-06-10T10:13:47;2.15;;;0.90;;
50671;SDS011;46021;55.882;37.654;2023-06-10T10:16:17;3.25;;;1.10;;
50671;SDS011;46021;55.882;37.654;2023-06-10T10:18:46;3.53;;;0.93;;
50671;SDS011;46021;55.882;37.654;2023-06-10T10:21:21;2.30;;;0.75;;
50671;SDS011;46021;55.882;37.654;2023-06-10T10:23:53;7.10;;;0.90;;
50671;SDS011;46021;55.882;37.654;2023-06-10T10:26:26;8.20;;;0.90;;
50671;SDS011;46021;55.882;37.654;2023-06-10T10:31:28;1.85;;;0.70;;
50671;SDS011;46021;55.882;37.654;2023-06-10T10:33:59;2.08;;;0.90;;
50671;SDS011;46021;55.882;37.654;2023-06-10T10:36:29;3.05;;;0.70;;
50671;SDS011;46021;55.882;37.654;2023-06-10T10:38:58;1.48;;;0.70;;
50671;SDS011;46021;55.882;37.654;2023-06-10T10:41:28;3.35;;;0.82;;
50671;SDS011;46021;55.882;37.654;2023-06-10T10:43:58;3.35;;;1.20;;
50671;SDS011;46021;55.882;37.654;2023-06-10T10:46:26;2.00;;;0.70;;
50671;SDS011;46021;55.882;37.654;2023-06-10T10:51:21;1.90;;;0.80;;
50671;SDS011;46021;55.882;37.654;2023-06-10T10:54:12;4.28;;;0.73;;
50671;SDS011;46021;55.882;37.654;2023-06-10T10:56:40;4.13;;;0.90;;
50671;SDS011;46021;55.882;37.654;2023-06-10T10:59:43;7.22;;;1.25;;
50671;SDS011;46021;55.882;37.654;2023-06-10T11:02:38;6.07;;;1.20;;
50671;SDS011;46021;55.882;37.654;2023-06-10T11:05:08;3.80;;;0.82;;
50671;SDS011;46021;55.882;37.654;2023-06-10T11:07:37;2.00;;;1.00;;
50671;SDS011;46021;55.882;37.654;2023-06-10T11:10:09;5.75;;;1.20;;
50671;SDS011;46021;55.882;37.654;2023-06-10T11:12:50;4.72;;;0.90;;
50671;SDS011;46021;55.882;37.654;2023-06-10T11:15:19;4.28;;;1.00;;
50671;SDS011;46021;55.882;37.654;2023-06-10T11:20:41;2.58;;;1.25;;
50671;SDS011;46021;55.882;37.654;2023-06-10T11:23:33;6.93;;;0.90;;
50671;SDS011;46021;55.882;37.654;2023-06-10T11:26:16;3.08;;;0.80;;
50671;SDS011;46021;55.882;37.654;2023-06-10T11:29:04;3.85;;;1.25;;
50671;SDS011;46021;55.882;37.654;2023-06-10T11:31:41;2.28;;;0.90;;
50671;SDS011;46021;55.882;37.654;2023-06-10T11:34:10;3.03;;;1.23;;
50671;SDS011;46021;55.882;37.654;2023-06-10T11:36:39;2.42;;;0.80;;
50671;SDS011;46021;55.882;37.654;2023-06-10T11:39:08;4.40;;;1.10;;
50671;SDS011;46021;55.882;37.654;2023-06-10T11:41:38;1.50;;;0.80;;
50671;SDS011;46021;55.882;37.654;2023-06-10T11:44:09;2.50;;;0.70;;
50671;SDS011;46021;55.882;37.654;2023-06-10T11:46:37;5.95;;;0.90;;
50671;SDS011;46021;55.882;37.654;2023-06-10T11:49:05;40.58;;;3.50;;
50671;SDS011;46021;55.882;37.654;2023-06-10T11:51:33;4.60;;;0.95;;
50671;SDS011;46021;55.882;37.654;2023-06-10T11:54:01;18.30;;;1.98;;
50671;SDS011;46021;55.882;37.654;2023-06-10T11:56:29;9.85;;;1.13;;
50671;SDS011;46021;55.882;37.654;2023-06-10T11:58:59;2.25;;;0.80;;
50671;SDS011;46021;55.882;37.654;2023-06-10T12:01:31;1.85;;;1.10;;
50671;SDS011;46021;55.882;37.654;2023-06-10T12:04:02;3.97;;;1.13;;
50671;SDS011;46021;55.882;37.654;2023-06-10T12:06:40;4.93;;;1.00;;
50671;SDS011;46021;55.882;37.654;2023-06-10T12:09:16;2.20;;;1.08;;
50671;SDS011;46021;55.882;37.654;2023-06-10T12:11:45;5.75;;;1.50;;
50671;SDS011;46021;55.882;37.654;2023-06-10T12:14:16;5.43;;;1.40;;
50671;SDS011;46021;55.882;37.654;2023-06-10T12:19:30;2.03;;;1.00;;
50671;SDS011;46021;55.882;37.654;2023-06-10T12:22:00;5.28;;;0.80;;
50671;SDS011;46021;55.882;37.654;2023-06-10T12:24:27;2.45;;;0.80;;
50671;SDS011;46021;55.882;37.654;2023-06-10T12:26:54;3.38;;;1.20;;
50671;SDS011;46021;55.882;37.654;2023-06-10T12:29:24;2.53;;;1.00;;
50671;SDS011;46021;55.882;37.654;2023-06-10T12:31:52;3.00;;;1.00;;
50671;SDS011;46021;55.882;37.654;2023-06-10T12:34:31;2.25;;;0.90;;
50671;SDS011;46021;55.882;37.654;2023-06-10T12:36:59;2.42;;;1.23;;
50671;SDS011;46021;55.882;37.654;2023-06-10T12:39:27;4.00;;;1.23;;
50671;SDS011;46021;55.882;37.654;2023-06-10T12:41:54;2.95;;;0.90;;
50671;SDS011;46021;55.882;37.654;2023-06-10T12:44:32;5.68;;;1.25;;
50671;SDS011;46021;55.882;37.654;2023-06-10T12:47:01;2.90;;;1.15;;
50671;SDS011;46021;55.882;37.654;2023-06-10T12:49:35;3.40;;;1.00;;
50671;SDS011;46021;55.882;37.654;2023-06-10T12:52:03;6.30;;;1.38;;
50671;SDS011;46021;55.882;37.654;2023-06-10T12:54:30;2.47;;;1.25;;
50671;SDS011;46021;55.882;37.654;2023-06-10T12:56:57;3.10;;;1.20;;
50671;SDS011;46021;55.882;37.654;2023-06-10T12:59:25;2.08;;;1.05;;
50671;SDS011;46021;55.882;37.654;2023-06-10T13:01:54;3.75;;;1.13;;
50671;SDS011;46021;55.882;37.654;2023-06-10T13:04:22;3.83;;;1.50;;
50671;SDS011;46021;55.882;37.654;2023-06-10T13:06:49;4.18;;;1.58;;
50671;SDS011;46021;55.882;37.654;2023-06-10T13:09:16;2.28;;;1.30;;
50671;SDS011;46021;55.882;37.654;2023-06-10T13:11:43;4.18;;;1.45;;
50671;SDS011;46021;55.882;37.654;2023-06-10T13:14:11;11.52;;;1.52;;
50671;SDS011;46021;55.882;37.654;2023-06-10T13:16:38;3.97;;;1.15;;
50671;SDS011;46021;55.882;37.654;2023-06-10T13:19:07;8.75;;;1.73;;
50671;SDS011;46021;55.882;37.654;2023-06-10T13:21:34;3.45;;;1.98;;
50671;SDS011;46021;55.882;37.654;2023-06-10T13:24:02;2.83;;;1.40;;
50671;SDS011;46021;55.882;37.654;2023-06-10T13:26:29;2.30;;;1.02;;
50671;SDS011;46021;55.882;37.654;2023-06-10T13:28:56;4.75;;;0.95;;
50671;SDS011;46021;55.882;37.654;2023-06-10T13:31:24;6.43;;;0.90;;
50671;SDS011;46021;55.882;37.654;2023-06-10T13:33:51;2.70;;;0.90;;
50671;SDS011;46021;55.882;37.654;2023-06-10T13:36:19;5.20;;;1.23;;
50671;SDS011;46021;55.882;37.654;2023-06-10T13:38:46;2.70;;;1.13;;
50671;SDS011;46021;55.882;37.654;2023-06-10T13:41:13;3.47;;;1.42;;
50671;SDS011;46021;55.882;37.654;2023-06-10T13:43:41;4.78;;;1.10;;
50671;SDS011;46021;55.882;37.654;2023-06-10T13:46:08;8.02;;;1.10;;
50671;SDS011;46021;55.882;37.654;2023-06-10T13:48:35;4.80;;;1.42;;
50671;SDS011;46021;55.882;37.654;2023-06-10T13:51:02;2.13;;;1.10;;
50671;SDS011;46021;55.882;37.654;2023-06-10T13:53:30;3.67;;;1.35;;
50671;SDS011;46021;55.882;37.654;2023-06-10T13:55:58;2.53;;;1.20;;
50671;SDS011;46021;55.882;37.654;2023-06-10T13:58:25;3.00;;;1.40;;
50671;SDS011;46021;55.882;37.654;2023-06-10T14:00:52;6.70;;;1.70;;
50671;SDS011;46021;55.882;37.654;2023-06-10T14:05:46;2.90;;;1.40;;
50671;SDS011;46021;55.882;37.654;2023-06-10T14:08:14;1.45;;;0.90;;
50671;SDS011;46021;55.882;37.654;2023-06-10T14:10:42;6.30;;;1.23;;
50671;SDS011;46021;55.882;37.654;2023-06-10T14:13:09;3.50;;;1.17;;
50671;SDS011;46021;55.882;37.654;2023-06-10T14:15:37;5.80;;;1.00;;
50671;SDS011;46021;55.882;37.654;2023-06-10T14:18:04;3.13;;;1.00;;
50671;SDS011;46021;55.882;37.654;2023-06-10T14:20:31;9.45;;;1.40;;
50671;SDS011;46021;55.882;37.654;2023-06-10T14:22:58;5.63;;;1.20;;
50671;SDS011;46021;55.882;37.654;2023-06-10T14:25:25;1.65;;;1.00;;
50671;SDS011;46021;55.882;37.654;2023-06-10T14:27:54;4.47;;;1.50;;
50671;SDS011;46021;55.882;37.654;2023-06-10T14:30:21;2.63;;;1.10;;
50671;SDS011;46021;55.882;37.654;2023-06-10T14:32:48;9.40;;;1.50;;
50671;SDS011;46021;55.882;37.654;2023-06-10T14:35:16;4.95;;;1.10;;
50671;SDS011;46021;55.882;37.654;2023-06-10T14:37:43;1.95;;;1.13;;
50671;SDS011;46021;55.882;37.654;2023-06-10T14:40:10;6.18;;;1.30;;
50671;SDS011;46021;55.882;37.654;2023-06-10T14:42:38;4.35;;;1.20;;
50671;SDS011;46021;55.882;37.654;2023-06-10T14:45:07;2.30;;;0.98;;
50671;SDS011;46021;55.882;37.654;2023-06-10T14:47:35;3.33;;;1.00;;
50671;SDS011;46021;55.882;37.654;2023-06-10T14:50:02;3.17;;;1.27;;
50671;SDS011;46021;55.882;37.654;2023-06-10T14:52:30;4.10;;;1.33;;
50671;SDS011;46021;55.882;37.654;2023-06-10T14:54:57;1.90;;;1.13;;
50671;SDS011;46021;55.882;37.654;2023-06-10T14:57:24;8.90;;;1.37;;
50671;SDS011;46021;55.882;37.654;2023-06-10T14:59:51;3.92;;;1.15;;
50671;SDS011;46021;55.882;37.654;2023-06-10T15:02:20;10.68;;;1.70;;
50671;SDS011;46021;55.882;37.654;2023-06-10T15:04:47;1.92;;;1.15;;
50671;SDS011;46021;55.882;37.654;2023-06-10T15:07:14;2.45;;;1.27;;
50671;SDS011;46021;55.882;37.654;2023-06-10T15:09:41;2.42;;;1.15;;
50671;SDS011;46021;55.882;37.654;2023-06-10T15:12:09;1.75;;;0.93;;
50671;SDS011;46021;55.882;37.654;2023-06-10T15:14:36;3.45;;;0.98;;
50671;SDS011;46021;55.882;37.654;2023-06-10T15:17:04;7.78;;;1.35;;
50671;SDS011;46021;55.882;37.654;2023-06-10T15:19:32;3.10;;;1.30;;
50671;SDS011;46021;55.882;37.654;2023-06-10T15:21:59;4.78;;;1.45;;
50671;SDS011;46021;55.882;37.654;2023-06-10T15:24:26;5.40;;;1.10;;